This is the latest recevied weather packets stored in our database for station/object IZ1UKX-13. If no packets are shown the sender has not sent any weather packets the latest 10 day(s).
| Time | Temp. | Humidity | Pressure | Rain* | Wind** | Luminosity | Snow |
|---|---|---|---|---|---|---|---|
| 1787818176 | 25.56° C | 65% | 1021.8 hPa | 0 mm | - | 0 W/m² | - |
| 1787817876 | 25° C | 68% | 1021.8 hPa | 0 mm | - | 0 W/m² | - |
| 1787817576 | 23.33° C | 71% | 1022.3 hPa | 0 mm | - | 0 W/m² | - |
| 1787817277 | 22.78° C | 72% | 1022.3 hPa | 0 mm | - | 0 W/m² | - |
| 1787816977 | 21.67° C | 74% | 1022.7 hPa | 0 mm | - | 0 W/m² | - |
| 1787816677 | 20.56° C | 77% | 1022.7 hPa | 0 mm | - | 0 W/m² | - |
| 1787816376 | 20.56° C | 76% | 1022.7 hPa | 0 mm | - | 0 W/m² | - |
| 1787816076 | 20.56° C | 76% | 1022.7 hPa | 0 mm | - | 0 W/m² | - |
| 1787815776 | 21.11° C | 74% | 1022.7 hPa | 0 mm | - | 0 W/m² | - |
| 1787815476 | 22.22° C | 71% | 1022.3 hPa | 0 mm | - | 0 W/m² | - |
| 1787815176 | 23.33° C | 69% | 1022.3 hPa | 0 mm | - | 0 W/m² | - |
| 1787814876 | 22.78° C | 70% | 1022.3 hPa | 0 mm | - | 0 W/m² | - |
| 1787814576 | 22.22° C | 72% | 1022.3 hPa | 0 mm | - | 0 W/m² | - |
| 1787814276 | 21.11° C | 74% | 1022.7 hPa | 0 mm | - | 0 W/m² | - |
| 1787813976 | 21.11° C | 76% | 1022.7 hPa | 0 mm | - | 0 W/m² | - |
| 1787813676 | 20° C | 78% | 1022.7 hPa | 0 mm | - | 0 W/m² | - |
| 1787813376 | 19.44° C | 79% | 1023.2 hPa | 0 mm | - | 0 W/m² | - |
| 1787813076 | 19.44° C | 79% | 1023.2 hPa | 0 mm | - | 0 W/m² | - |
| 1787812777 | 19.44° C | 78% | 1023.2 hPa | 0 mm | - | 0 W/m² | - |
| 1787812476 | 19.44° C | 79% | 1023.2 hPa | 0 mm | - | 0 W/m² | - |
| 1787812177 | 18.89° C | 80% | 1023.2 hPa | 0 mm | - | 0 W/m² | - |
| 1787811876 | 18.89° C | 80% | 1023.2 hPa | 0 mm | - | 0 W/m² | - |
| 1787811576 | 18.89° C | 80% | 1023.2 hPa | 0 mm | - | 0 W/m² | - |
| 1787811277 | 18.33° C | 82% | 1023.2 hPa | 0 mm | - | 0 W/m² | - |
| 1787810977 | 18.33° C | 83% | 1023.2 hPa | 0 mm | - | 0 W/m² | - |
* Rain latest hour (hover to see other rain measurements)
** Current wind speed in m/s (hover to see current wind gust speed)